Main page
METAR-TAF:

METAR-TAF

Airports :

Hakkari–Yüksekova Airport

Yüksekova, Turkey

latitude: 37-33-06N, longitude: 44-14-01E, elevation: 1950 m

Current weather observation

The report was made 2 hours and 10 minutes ago, at 12:50 UTC
Wind 4 kt from the Southwest, varying between South/Southeast and West
Temperature 7°C
Humidity 45%
Pressure 1026 hPa
Visibility 10 km or more
Few clouds at a height of 4000 ft

METAR: LTCW 241250Z 22004KT 150V280 9999 FEW040 07/M04 Q1026

Time: 18:00 (15:00 UTC)

Forecast

The report was made 1 hour and 20 minutes ago, at 13:40 UTC
Forecast valid from 24 at 15 UTC to 24 at 24 UTC
Wind 2 kt from variable directions
Visibility 10 km or more
Scattered clouds at a height of 3500 ft

TAF: LTCW 241340Z 2415/2424 VRB02KT 9999 SCT035

Weather observations and forecasts of more than 4000 airports (METAR and TAF reports).

The available stations are represented by yellow and red dots on the map.

Hover mouse over dot to see the name of the station.

Then click to see weather observations and forecasts.

To change the map : click on the green buttons with a black cross to zoom in, on the green button with a dash to zoom out, or on the green arrows for adjacent maps.


METAR-TAF: